^^
TXWeather Station Historical Data
Daily Summary for May 03, 2022 Units:  English    Metric   Both
Daily Weekly Monthly Yearly Custom
  High: Low: Average:
Temperature: 89.0 °F 76.0 °F 81.4 °F
Dew Point: 75.0 °F 70.0 °F 71.9 °F
Humidity: 85% 59% 74%
Wind Speed: 15mph 2mph 9.1mph
Wind Gust: 16mph - -
Wind- - SSE
Pressure: 30.0 in 29.9 in -
Precipitation: 0.000 in    
Historical Graphs
 
 
Tabular Data for May 03, 2022
Time Temperature Dew Point Pressure Wind Wind Speed Wind Gust Humidity Rainfall Rate (Hourly) solar
00:04 77.0 °F 71.0 °F 29.9 in SE 8 mph 9 mph 83% 0.000 in 0.00 W/m2
00:09 77.0 °F 71.0 °F 29.9 in SSE 10 mph 11 mph 83% 0.000 in 0.00 W/m2
00:14 77.0 °F 71.0 °F 29.9 in SSE 9 mph 9 mph 83% 0.000 in 0.00 W/m2
00:19 77.0 °F 71.0 °F 29.9 in SE 9 mph 9 mph 83% 0.000 in 0.00 W/m2
00:24 77.0 °F 71.0 °F 29.9 in SE 10 mph 13 mph 83% 0.000 in 0.00 W/m2
00:29 77.0 °F 71.0 °F 29.9 in SSE 12 mph 13 mph 83% 0.000 in 0.00 W/m2
00:34 77.0 °F 71.0 °F 29.9 in SSE 9 mph 10 mph 83% 0.000 in 0.00 W/m2
00:39 77.0 °F 71.0 °F 29.9 in SE 9 mph 10 mph 83% 0.000 in 0.00 W/m2
00:44 77.0 °F 71.0 °F 29.9 in SSE 6 mph 9 mph 83% 0.000 in 0.00 W/m2
00:49 77.0 °F 71.0 °F 29.9 in SE 12 mph 12 mph 83% 0.000 in 0.00 W/m2
00:54 77.0 °F 71.0 °F 29.9 in SSE 10 mph 12 mph 83% 0.000 in 0.00 W/m2
00:59 77.0 °F 71.0 °F 29.9 in SE 7 mph 11 mph 83% 0.000 in 0.00 W/m2
01:04 77.0 °F 71.0 °F 29.9 in SSE 9 mph 11 mph 83% 0.000 in 0.00 W/m2
01:09 77.0 °F 71.0 °F 29.9 in SE 9 mph 11 mph 83% 0.000 in 0.00 W/m2
01:14 77.0 °F 71.0 °F 29.9 in SE 10 mph 12 mph 83% 0.000 in 0.00 W/m2
01:19 77.0 °F 71.0 °F 29.9 in SE 12 mph 12 mph 83% 0.000 in 0.00 W/m2
01:24 77.0 °F 71.0 °F 29.9 in SSE 8 mph 9 mph 83% 0.000 in 0.00 W/m2
01:29 77.0 °F 71.0 °F 29.9 in SSE 6 mph 10 mph 83% 0.000 in 0.00 W/m2
01:33 77.0 °F 71.0 °F 29.9 in SSE 12 mph 12 mph 83% 0.000 in 0.00 W/m2
01:39 77.0 °F 72.0 °F 29.9 in SSE 11 mph 12 mph 83% 0.000 in 0.00 W/m2
01:44 77.0 °F 72.0 °F 29.9 in SSE 11 mph 15 mph 83% 0.000 in 0.00 W/m2
01:49 77.0 °F 72.0 °F 29.9 in SSE 9 mph 15 mph 83% 0.000 in 0.00 W/m2
01:54 77.0 °F 72.0 °F 29.9 in SSE 8 mph 8 mph 83% 0.000 in 0.00 W/m2
01:59 77.0 °F 72.0 °F 29.9 in SSE 8 mph 8 mph 83% 0.000 in 0.00 W/m2
02:04 77.0 °F 72.0 °F 29.9 in SSE 6 mph 8 mph 83% 0.000 in 0.00 W/m2
02:09 77.0 °F 72.0 °F 29.9 in SSE 11 mph 14 mph 83% 0.000 in 0.00 W/m2
02:14 77.0 °F 72.0 °F 29.9 in SSE 9 mph 14 mph 83% 0.000 in 0.00 W/m2
02:19 77.0 °F 72.0 °F 29.9 in SSE 11 mph 12 mph 83% 0.000 in 0.00 W/m2
02:24 77.0 °F 71.0 °F 29.9 in SSE 11 mph 11 mph 83% 0.000 in 0.00 W/m2
02:29 77.0 °F 71.0 °F 29.9 in SSE 9 mph 11 mph 83% 0.000 in 0.00 W/m2
02:34 77.0 °F 71.0 °F 29.9 in SSE 9 mph 9 mph 83% 0.000 in 0.00 W/m2
02:39 77.0 °F 71.0 °F 29.9 in SSE 10 mph 10 mph 83% 0.000 in 0.00 W/m2
02:44 77.0 °F 71.0 °F 29.9 in SSE 8 mph 11 mph 83% 0.000 in 0.00 W/m2
02:49 77.0 °F 71.0 °F 29.9 in SSE 10 mph 10 mph 83% 0.000 in 0.00 W/m2
02:54 77.0 °F 71.0 °F 29.9 in SSE 8 mph 12 mph 83% 0.000 in 0.00 W/m2
02:59 77.0 °F 71.0 °F 29.9 in SSE 12 mph 12 mph 83% 0.000 in 0.00 W/m2
03:04 77.0 °F 71.0 °F 29.9 in SSE 6 mph 7 mph 83% 0.000 in 0.00 W/m2
03:09 77.0 °F 71.0 °F 29.9 in SSE 5 mph 6 mph 84% 0.000 in 0.00 W/m2
03:14 77.0 °F 71.0 °F 29.9 in South 9 mph 9 mph 84% 0.000 in 0.00 W/m2
03:19 77.0 °F 71.0 °F 29.9 in SSE 7 mph 8 mph 84% 0.000 in 0.00 W/m2
03:24 77.0 °F 71.0 °F 29.9 in SSE 8 mph 10 mph 84% 0.000 in 0.00 W/m2
03:29 77.0 °F 71.0 °F 29.9 in SSE 12 mph 12 mph 84% 0.000 in 0.00 W/m2
03:34 77.0 °F 71.0 °F 29.9 in SSE 8 mph 12 mph 84% 0.000 in 0.00 W/m2
03:39 77.0 °F 71.0 °F 29.9 in SSE 7 mph 8 mph 84% 0.000 in 0.00 W/m2
03:44 77.0 °F 71.0 °F 29.9 in SSE 9 mph 9 mph 84% 0.000 in 0.00 W/m2
03:49 77.0 °F 71.0 °F 29.9 in SSE 6 mph 6 mph 84% 0.000 in 0.00 W/m2
03:54 77.0 °F 71.0 °F 29.9 in South 6 mph 7 mph 84% 0.000 in 0.00 W/m2
03:59 77.0 °F 71.0 °F 29.9 in SSE 6 mph 7 mph 84% 0.000 in 0.00 W/m2
04:04 77.0 °F 71.0 °F 29.9 in SSE 9 mph 9 mph 84% 0.000 in 0.00 W/m2
04:09 77.0 °F 71.0 °F 29.9 in SSE 7 mph 9 mph 84% 0.000 in 0.00 W/m2
04:14 77.0 °F 71.0 °F 29.9 in SSE 5 mph 7 mph 84% 0.000 in 0.00 W/m2
04:19 77.0 °F 71.0 °F 29.9 in SSE 5 mph 6 mph 84% 0.000 in 0.00 W/m2
04:24 77.0 °F 71.0 °F 29.9 in SSE 7 mph 7 mph 84% 0.000 in 0.00 W/m2
04:29 77.0 °F 71.0 °F 29.9 in SSE 6 mph 7 mph 84% 0.000 in 0.00 W/m2
04:34 77.0 °F 71.0 °F 29.9 in SSE 8 mph 8 mph 84% 0.000 in 0.00 W/m2
04:39 77.0 °F 71.0 °F 29.9 in SSE 9 mph 9 mph 84% 0.000 in 0.00 W/m2
04:44 77.0 °F 71.0 °F 29.9 in SSE 8 mph 8 mph 84% 0.000 in 0.00 W/m2
04:49 77.0 °F 71.0 °F 29.9 in SSE 10 mph 12 mph 84% 0.000 in 0.00 W/m2
04:54 77.0 °F 71.0 °F 29.9 in SSE 9 mph 11 mph 84% 0.000 in 0.00 W/m2
04:59 77.0 °F 71.0 °F 29.9 in SSE 10 mph 12 mph 84% 0.000 in 0.00 W/m2
05:04 77.0 °F 71.0 °F 29.9 in SSE 6 mph 12 mph 84% 0.000 in 0.00 W/m2
05:09 77.0 °F 71.0 °F 29.9 in SSE 10 mph 11 mph 84% 0.000 in 0.00 W/m2
05:14 77.0 °F 71.0 °F 29.9 in SSE 11 mph 11 mph 84% 0.000 in 0.00 W/m2
05:19 77.0 °F 71.0 °F 29.9 in SSE 14 mph 16 mph 84% 0.000 in 0.00 W/m2
05:24 77.0 °F 71.0 °F 29.9 in SSE 9 mph 16 mph 84% 0.000 in 0.00 W/m2
05:29 77.0 °F 71.0 °F 29.9 in SSE 11 mph 11 mph 84% 0.000 in 0.00 W/m2
05:34 77.0 °F 71.0 °F 29.9 in SSE 10 mph 11 mph 84% 0.000 in 0.00 W/m2
05:39 77.0 °F 71.0 °F 29.9 in SSE 11 mph 13 mph 84% 0.000 in 0.00 W/m2
05:44 77.0 °F 71.0 °F 29.9 in SE 10 mph 13 mph 84% 0.000 in 0.00 W/m2
05:49 76.0 °F 71.0 °F 29.9 in SSE 11 mph 12 mph 84% 0.000 in 0.00 W/m2
05:54 76.0 °F 71.0 °F 29.9 in SSE 10 mph 13 mph 84% 0.000 in 0.00 W/m2
05:59 76.0 °F 71.0 °F 29.9 in SSE 12 mph 13 mph 84% 0.000 in 0.00 W/m2
06:04 76.0 °F 71.0 °F 29.9 in SSE 10 mph 10 mph 84% 0.000 in 0.00 W/m2
06:09 76.0 °F 71.0 °F 29.9 in SSE 9 mph 9 mph 84% 0.000 in 0.00 W/m2
06:14 76.0 °F 71.0 °F 29.9 in SSE 10 mph 11 mph 84% 0.000 in 0.00 W/m2
06:19 76.0 °F 71.0 °F 29.9 in SSE 8 mph 8 mph 85% 0.000 in 0.00 W/m2
06:24 76.0 °F 71.0 °F 29.9 in SSE 8 mph 8 mph 85% 0.000 in 0.00 W/m2
06:29 76.0 °F 71.0 °F 29.9 in SE 7 mph 8 mph 85% 0.000 in 0.00 W/m2
06:34 76.0 °F 71.0 °F 29.9 in SSE 8 mph 8 mph 85% 0.000 in 0.00 W/m2
06:39 76.0 °F 71.0 °F 29.9 in SSE 9 mph 9 mph 85% 0.000 in 0.00 W/m2
06:44 76.0 °F 71.0 °F 29.9 in SE 8 mph 8 mph 85% 0.000 in 0.00 W/m2
06:49 76.0 °F 71.0 °F 29.9 in SSE 8 mph 10 mph 85% 0.000 in 7.00 W/m2
06:54 76.0 °F 71.0 °F 29.9 in SE 8 mph 10 mph 85% 0.000 in 9.00 W/m2
06:59 76.0 °F 71.0 °F 29.9 in SSE 7 mph 9 mph 85% 0.000 in 16.00 W/m2
07:04 76.0 °F 71.0 °F 29.9 in SSE 8 mph 8 mph 85% 0.000 in 18.00 W/m2
07:09 76.0 °F 71.0 °F 29.9 in SSE 9 mph 9 mph 85% 0.000 in 19.00 W/m2
07:14 76.0 °F 71.0 °F 29.9 in SSE 5 mph 7 mph 85% 0.000 in 21.00 W/m2
07:19 76.0 °F 71.0 °F 29.9 in SSE 6 mph 7 mph 85% 0.000 in 21.00 W/m2
07:24 76.0 °F 71.0 °F 29.9 in SSE 7 mph 7 mph 85% 0.000 in 32.00 W/m2
07:29 76.0 °F 71.0 °F 29.9 in SSE 7 mph 14 mph 85% 0.000 in 37.00 W/m2
07:34 76.0 °F 71.0 °F 29.9 in SSE 8 mph 10 mph 85% 0.000 in 46.00 W/m2
07:39 76.0 °F 71.0 °F 29.9 in SSE 10 mph 10 mph 85% 0.000 in 47.00 W/m2
07:44 76.0 °F 71.0 °F 29.9 in SSE 9 mph 10 mph 85% 0.000 in 56.00 W/m2
07:49 76.0 °F 71.0 °F 29.9 in SSE 7 mph 10 mph 85% 0.000 in 58.00 W/m2
07:54 77.0 °F 72.0 °F 30.0 in SE 7 mph 10 mph 85% 0.000 in 65.00 W/m2
07:59 77.0 °F 72.0 °F 30.0 in SE 9 mph 10 mph 85% 0.000 in 72.00 W/m2
08:04 77.0 °F 72.0 °F 30.0 in SSE 9 mph 11 mph 85% 0.000 in 109.00 W/m2
08:09 77.0 °F 72.0 °F 30.0 in SSE 8 mph 8 mph 85% 0.000 in 114.00 W/m2
08:14 77.0 °F 72.0 °F 30.0 in SSE 9 mph 9 mph 85% 0.000 in 132.00 W/m2
08:19 77.0 °F 72.0 °F 30.0 in SSE 6 mph 6 mph 84% 0.000 in 142.00 W/m2
08:24 77.0 °F 72.0 °F 30.0 in SSE 10 mph 10 mph 84% 0.000 in 111.00 W/m2
08:29 77.0 °F 72.0 °F 30.0 in SSE 6 mph 10 mph 84% 0.000 in 132.00 W/m2
08:34 78.0 °F 72.0 °F 30.0 in South 7 mph 9 mph 84% 0.000 in 132.00 W/m2
08:39 78.0 °F 72.0 °F 30.0 in SSE 9 mph 9 mph 84% 0.000 in 113.00 W/m2
08:44 78.0 °F 72.0 °F 30.0 in SSE 6 mph 6 mph 83% 0.000 in 111.00 W/m2
08:49 78.0 °F 72.0 °F 30.0 in SSE 5 mph 6 mph 83% 0.000 in 84.00 W/m2
08:54 78.0 °F 72.0 °F 30.0 in SSE 5 mph 7 mph 83% 0.000 in 84.00 W/m2
08:59 78.0 °F 72.0 °F 30.0 in SSE 5 mph 5 mph 82% 0.000 in 114.00 W/m2
09:04 78.0 °F 72.0 °F 30.0 in SSE 6 mph 7 mph 82% 0.000 in 158.00 W/m2
09:09 78.0 °F 72.0 °F 30.0 in SSE 6 mph 7 mph 82% 0.000 in 139.00 W/m2
09:14 78.0 °F 72.0 °F 30.0 in SSE 8 mph 8 mph 82% 0.000 in 155.00 W/m2
09:19 78.0 °F 73.0 °F 30.0 in SE 6 mph 7 mph 82% 0.000 in 179.00 W/m2
09:24 79.0 °F 72.0 °F 30.0 in SE 8 mph 8 mph 81% 0.000 in 308.00 W/m2
09:29 79.0 °F 73.0 °F 30.0 in SE 4 mph 4 mph 81% 0.000 in 434.00 W/m2
09:34 79.0 °F 73.0 °F 30.0 in SE 6 mph 8 mph 81% 0.000 in 529.00 W/m2
09:39 80.0 °F 73.0 °F 30.0 in SSE 7 mph 8 mph 80% 0.000 in 206.00 W/m2
09:44 80.0 °F 73.0 °F 30.0 in SSE 7 mph 8 mph 79% 0.000 in 178.00 W/m2
09:49 80.0 °F 73.0 °F 30.0 in SSE 8 mph 8 mph 79% 0.000 in 278.00 W/m2
09:54 80.0 °F 73.0 °F 30.0 in SSE 8 mph 8 mph 78% 0.000 in 427.00 W/m2
09:59 80.0 °F 73.0 °F 30.0 in SSE 10 mph 10 mph 78% 0.000 in 612.00 W/m2
10:04 81.0 °F 73.0 °F 30.0 in SSE 9 mph 10 mph 78% 0.000 in 606.00 W/m2
10:09 82.0 °F 74.0 °F 30.0 in SSE 10 mph 10 mph 78% 0.000 in 584.00 W/m2
10:14 82.0 °F 74.0 °F 30.0 in SSE 11 mph 11 mph 77% 0.000 in 622.00 W/m2
10:19 83.0 °F 74.0 °F 30.0 in SSE 8 mph 9 mph 76% 0.000 in 694.00 W/m2
10:24 84.0 °F 74.0 °F 30.0 in SE 11 mph 11 mph 75% 0.000 in 694.00 W/m2
10:29 84.0 °F 74.0 °F 30.0 in SSE 13 mph 14 mph 74% 0.000 in 670.00 W/m2
10:34 84.0 °F 74.0 °F 30.0 in SSE 10 mph 12 mph 72% 0.000 in 693.00 W/m2
10:39 84.0 °F 74.0 °F 30.0 in SE 10 mph 12 mph 71% 0.000 in 747.00 W/m2
10:44 84.0 °F 74.0 °F 30.0 in SSE 11 mph 12 mph 71% 0.000 in 733.00 W/m2
10:49 84.0 °F 74.0 °F 30.0 in SSE 12 mph 12 mph 71% 0.000 in 796.00 W/m2
10:54 85.0 °F 74.0 °F 30.0 in SSE 9 mph 12 mph 71% 0.000 in 796.00 W/m2
10:59 85.0 °F 74.0 °F 30.0 in SSE 11 mph 12 mph 70% 0.000 in 793.00 W/m2
11:04 85.0 °F 74.0 °F 30.0 in SSE 9 mph 10 mph 70% 0.000 in 780.00 W/m2
11:09 86.0 °F 75.0 °F 30.0 in SSE 9 mph 10 mph 70% 0.000 in 826.00 W/m2
11:14 86.0 °F 75.0 °F 30.0 in SSE 8 mph 8 mph 70% 0.000 in 893.00 W/m2
11:19 86.0 °F 75.0 °F 30.0 in SSE 8 mph 12 mph 69% 0.000 in 854.00 W/m2
11:24 87.0 °F 74.0 °F 30.0 in SSE 8 mph 8 mph 67% 0.000 in 854.00 W/m2
11:29 87.0 °F 73.0 °F 30.0 in South 9 mph 11 mph 65% 0.000 in 847.00 W/m2
11:34 87.0 °F 73.0 °F 30.0 in SSE 9 mph 11 mph 63% 0.000 in 851.00 W/m2
11:39 87.0 °F 73.0 °F 30.0 in SSE 11 mph 12 mph 63% 0.000 in 905.00 W/m2
11:44 87.0 °F 73.0 °F 30.0 in SSE 11 mph 13 mph 62% 0.000 in 946.00 W/m2
11:49 87.0 °F 73.0 °F 30.0 in SSE 9 mph 12 mph 62% 0.000 in 981.00 W/m2
11:54 87.0 °F 73.0 °F 30.0 in SSE 12 mph 14 mph 63% 0.000 in 1007.00 W/m2
11:59 87.0 °F 73.0 °F 30.0 in SE 12 mph 14 mph 62% 0.000 in 911.00 W/m2
12:04 87.0 °F 73.0 °F 30.0 in SE 10 mph 13 mph 63% 0.000 in 255.00 W/m2
12:09 87.0 °F 73.0 °F 30.0 in SSE 11 mph 13 mph 63% 0.000 in 323.00 W/m2
12:14 86.0 °F 73.0 °F 30.0 in SE 6 mph 10 mph 65% 0.000 in 323.00 W/m2
12:19 86.0 °F 73.0 °F 30.0 in SE 9 mph 9 mph 65% 0.000 in 281.00 W/m2
12:24 86.0 °F 73.0 °F 30.0 in SE 9 mph 9 mph 66% 0.000 in 380.00 W/m2
12:29 86.0 °F 73.0 °F 30.0 in SE 11 mph 11 mph 67% 0.000 in 1106.00 W/m2
12:34 86.0 °F 73.0 °F 30.0 in SE 10 mph 12 mph 67% 0.000 in 455.00 W/m2
12:39 86.0 °F 74.0 °F 30.0 in SE 10 mph 11 mph 68% 0.000 in 1151.00 W/m2
12:44 86.0 °F 74.0 °F 30.0 in SE 14 mph 14 mph 67% 0.000 in 1090.00 W/m2
12:49 87.0 °F 74.0 °F 30.0 in SE 12 mph 12 mph 66% 0.000 in 1081.00 W/m2
12:54 87.0 °F 74.0 °F 30.0 in SE 11 mph 11 mph 66% 0.000 in 1069.00 W/m2
12:59 87.0 °F 74.0 °F 30.0 in SE 11 mph 13 mph 65% 0.000 in 990.00 W/m2
13:04 87.0 °F 74.0 °F 30.0 in SE 10 mph 13 mph 65% 0.000 in 990.00 W/m2
13:09 87.0 °F 74.0 °F 30.0 in SE 14 mph 14 mph 65% 0.000 in 1085.00 W/m2
13:14 88.0 °F 75.0 °F 30.0 in SSE 10 mph 11 mph 65% 0.000 in 1079.00 W/m2
13:19 88.0 °F 74.0 °F 30.0 in SSE 10 mph 12 mph 64% 0.000 in 403.00 W/m2
13:24 88.0 °F 74.0 °F 30.0 in SE 9 mph 12 mph 63% 0.000 in 390.00 W/m2
13:29 87.0 °F 73.0 °F 30.0 in SSE 11 mph 11 mph 63% 0.000 in 297.00 W/m2
13:34 87.0 °F 73.0 °F 30.0 in SE 8 mph 10 mph 63% 0.000 in 341.00 W/m2
13:39 87.0 °F 73.0 °F 30.0 in SE 9 mph 9 mph 64% 0.000 in 408.00 W/m2
13:44 87.0 °F 74.0 °F 30.0 in SSE 9 mph 10 mph 65% 0.000 in 417.00 W/m2
13:49 87.0 °F 74.0 °F 30.0 in SE 10 mph 11 mph 65% 0.000 in 1121.00 W/m2
13:54 87.0 °F 74.0 °F 30.0 in SE 13 mph 13 mph 65% 0.000 in 1093.00 W/m2
13:59 88.0 °F 74.0 °F 30.0 in SSE 12 mph 13 mph 64% 0.000 in 1118.00 W/m2
14:04 88.0 °F 75.0 °F 30.0 in SSE 10 mph 12 mph 64% 0.000 in 1109.00 W/m2
14:09 89.0 °F 74.0 °F 30.0 in SSE 11 mph 12 mph 63% 0.000 in 1058.00 W/m2
14:14 89.0 °F 73.0 °F 30.0 in SSE 9 mph 13 mph 61% 0.000 in 441.00 W/m2
14:19 89.0 °F 74.0 °F 30.0 in SE 10 mph 13 mph 61% 0.000 in 1053.00 W/m2
14:24 89.0 °F 74.0 °F 30.0 in SSE 9 mph 10 mph 62% 0.000 in 1014.00 W/m2
14:29 89.0 °F 73.0 °F 30.0 in SSE 12 mph 13 mph 60% 0.000 in 244.00 W/m2
14:34 89.0 °F 74.0 °F 30.0 in SSE 12 mph 14 mph 61% 0.000 in 1081.00 W/m2
14:39 89.0 °F 74.0 °F 30.0 in SE 11 mph 14 mph 61% 0.000 in 1081.00 W/m2
14:44 89.0 °F 74.0 °F 30.0 in SSE 15 mph 15 mph 61% 0.000 in 295.00 W/m2
14:49 89.0 °F 73.0 °F 30.0 in SSE 15 mph 15 mph 60% 0.000 in 295.00 W/m2
14:54 89.0 °F 74.0 °F 30.0 in SSE 12 mph 15 mph 61% 0.000 in 967.00 W/m2
14:59 89.0 °F 74.0 °F 30.0 in SSE 13 mph 15 mph 61% 0.000 in 984.00 W/m2
15:04 89.0 °F 73.0 °F 30.0 in SE 12 mph 15 mph 60% 0.000 in 984.00 W/m2
15:09 89.0 °F 73.0 °F 30.0 in SE 11 mph 12 mph 61% 0.000 in 285.00 W/m2
15:14 88.0 °F 73.0 °F 30.0 in SE 12 mph 13 mph 62% 0.000 in 974.00 W/m2
15:19 88.0 °F 73.0 °F 30.0 in SE 12 mph 13 mph 62% 0.000 in 974.00 W/m2
15:24 88.0 °F 73.0 °F 30.0 in SSE 10 mph 12 mph 60% 0.000 in 888.00 W/m2
15:29 89.0 °F 72.0 °F 30.0 in SSE 13 mph 13 mph 59% 0.000 in 875.00 W/m2
15:34 89.0 °F 73.0 °F 30.0 in SSE 9 mph 9 mph 60% 0.000 in 352.00 W/m2
15:39 89.0 °F 73.0 °F 30.0 in SE 10 mph 14 mph 60% 0.000 in 919.00 W/m2
15:44 88.0 °F 73.0 °F 30.0 in SE 12 mph 12 mph 61% 0.000 in 919.00 W/m2
15:49 88.0 °F 73.0 °F 30.0 in ESE 13 mph 13 mph 60% 0.000 in 218.00 W/m2
15:54 88.0 °F 72.0 °F 30.0 in SE 11 mph 13 mph 61% 0.000 in 214.00 W/m2
15:59 87.0 °F 73.0 °F 29.9 in SE 11 mph 14 mph 62% 0.000 in 251.00 W/m2
16:04 87.0 °F 73.0 °F 29.9 in SE 10 mph 13 mph 63% 0.000 in 262.00 W/m2
16:09 87.0 °F 73.0 °F 29.9 in SE 12 mph 13 mph 62% 0.000 in 237.00 W/m2
16:14 87.0 °F 72.0 °F 29.9 in SE 12 mph 14 mph 62% 0.000 in 176.00 W/m2
16:19 87.0 °F 72.0 °F 29.9 in SE 9 mph 11 mph 62% 0.000 in 258.00 W/m2
16:24 87.0 °F 73.0 °F 29.9 in SE 11 mph 14 mph 63% 0.000 in 758.00 W/m2
16:29 87.0 °F 73.0 °F 29.9 in SE 11 mph 13 mph 63% 0.000 in 659.00 W/m2
16:34 87.0 °F 72.0 °F 29.9 in SE 11 mph 11 mph 62% 0.000 in 167.00 W/m2
16:39 87.0 °F 72.0 °F 29.9 in SE 9 mph 11 mph 62% 0.000 in 213.00 W/m2
16:44 87.0 °F 73.0 °F 29.9 in SE 11 mph 12 mph 63% 0.000 in 652.00 W/m2
16:49 87.0 °F 73.0 °F 29.9 in SSE 12 mph 13 mph 63% 0.000 in 610.00 W/m2
16:54 87.0 °F 73.0 °F 29.9 in SSE 14 mph 14 mph 62% 0.000 in 599.00 W/m2
16:59 87.0 °F 73.0 °F 29.9 in SSE 10 mph 14 mph 62% 0.000 in 582.00 W/m2
17:04 87.0 °F 72.0 °F 29.9 in SE 11 mph 11 mph 61% 0.000 in 548.00 W/m2
17:09 88.0 °F 73.0 °F 29.9 in SSE 13 mph 13 mph 61% 0.000 in 519.00 W/m2
17:14 88.0 °F 73.0 °F 29.9 in SSE 14 mph 16 mph 61% 0.000 in 526.00 W/m2
17:19 88.0 °F 73.0 °F 29.9 in SE 10 mph 13 mph 61% 0.000 in 522.00 W/m2
17:24 88.0 °F 73.0 °F 29.9 in SE 11 mph 13 mph 61% 0.000 in 513.00 W/m2
17:29 88.0 °F 73.0 °F 29.9 in SE 11 mph 13 mph 61% 0.000 in 478.00 W/m2
17:34 88.0 °F 72.0 °F 29.9 in SE 13 mph 14 mph 60% 0.000 in 381.00 W/m2
17:39 88.0 °F 73.0 °F 29.9 in SE 13 mph 15 mph 61% 0.000 in 381.00 W/m2
17:44 87.0 °F 72.0 °F 29.9 in SE 11 mph 11 mph 61% 0.000 in 237.00 W/m2
17:49 87.0 °F 72.0 °F 29.9 in SE 15 mph 15 mph 61% 0.000 in 401.00 W/m2
17:54 87.0 °F 72.0 °F 29.9 in SE 13 mph 15 mph 61% 0.000 in 387.00 W/m2
17:59 87.0 °F 72.0 °F 29.9 in SE 12 mph 12 mph 62% 0.000 in 348.00 W/m2
18:04 86.0 °F 72.0 °F 29.9 in SE 10 mph 12 mph 62% 0.000 in 346.00 W/m2
18:09 87.0 °F 72.0 °F 29.9 in SE 9 mph 9 mph 62% 0.000 in 336.00 W/m2
18:14 87.0 °F 72.0 °F 29.9 in SSE 11 mph 11 mph 62% 0.000 in 352.00 W/m2
18:19 87.0 °F 72.0 °F 29.9 in SE 11 mph 13 mph 62% 0.000 in 345.00 W/m2
18:24 87.0 °F 72.0 °F 29.9 in SE 11 mph 11 mph 62% 0.000 in 285.00 W/m2
18:29 87.0 °F 72.0 °F 29.9 in SSE 9 mph 10 mph 62% 0.000 in 258.00 W/m2
18:34 87.0 °F 72.0 °F 29.9 in SSE 12 mph 12 mph 61% 0.000 in 239.00 W/m2
18:39 87.0 °F 71.0 °F 29.9 in SSE 10 mph 12 mph 60% 0.000 in 220.00 W/m2
18:44 87.0 °F 71.0 °F 29.9 in SSE 9 mph 11 mph 60% 0.000 in 192.00 W/m2
18:49 87.0 °F 71.0 °F 29.9 in SSE 8 mph 9 mph 61% 0.000 in 148.00 W/m2
18:54 86.0 °F 71.0 °F 29.9 in SSE 10 mph 10 mph 61% 0.000 in 90.00 W/m2
18:59 86.0 °F 72.0 °F 29.9 in SSE 6 mph 7 mph 62% 0.000 in 81.00 W/m2
19:04 86.0 °F 71.0 °F 29.9 in SSE 8 mph 8 mph 62% 0.000 in 49.00 W/m2
19:09 86.0 °F 71.0 °F 29.9 in SSE 9 mph 12 mph 63% 0.000 in 47.00 W/m2
19:14 85.0 °F 71.0 °F 29.9 in SE 8 mph 8 mph 63% 0.000 in 42.00 W/m2
19:19 85.0 °F 71.0 °F 29.9 in SSE 10 mph 10 mph 64% 0.000 in 40.00 W/m2
19:24 84.0 °F 71.0 °F 29.9 in SE 10 mph 10 mph 64% 0.000 in 33.00 W/m2
19:29 84.0 °F 71.0 °F 29.9 in SE 9 mph 9 mph 64% 0.000 in 28.00 W/m2
19:34 84.0 °F 71.0 °F 29.9 in SE 7 mph 8 mph 65% 0.000 in 32.00 W/m2
19:39 84.0 °F 71.0 °F 29.9 in SSE 10 mph 12 mph 65% 0.000 in 33.00 W/m2
19:44 84.0 °F 71.0 °F 29.9 in SE 11 mph 11 mph 65% 0.000 in 30.00 W/m2
19:49 83.0 °F 71.0 °F 29.9 in SSE 14 mph 16 mph 66% 0.000 in 25.00 W/m2
19:54 83.0 °F 70.0 °F 29.9 in SSE 10 mph 10 mph 66% 0.000 in 19.00 W/m2
19:59 83.0 °F 71.0 °F 29.9 in SSE 10 mph 11 mph 67% 0.000 in 16.00 W/m2
20:04 83.0 °F 71.0 °F 29.9 in SE 8 mph 9 mph 67% 0.000 in 12.00 W/m2
20:09 82.0 °F 70.0 °F 29.9 in SSE 10 mph 12 mph 67% 0.000 in 5.00 W/m2
20:14 82.0 °F 70.0 °F 29.9 in SSE 7 mph 10 mph 68% 0.000 in 0.00 W/m2
20:19 82.0 °F 70.0 °F 29.9 in SSE 10 mph 10 mph 68% 0.000 in 0.00 W/m2
20:24 82.0 °F 70.0 °F 29.9 in SSE 10 mph 10 mph 69% 0.000 in 0.00 W/m2
20:29 81.0 °F 70.0 °F 29.9 in SSE 10 mph 10 mph 69% 0.000 in 0.00 W/m2
20:34 81.0 °F 70.0 °F 29.9 in SSE 4 mph 10 mph 70% 0.000 in 0.00 W/m2
20:39 81.0 °F 70.0 °F 29.9 in SSE 7 mph 10 mph 70% 0.000 in 0.00 W/m2
20:44 81.0 °F 71.0 °F 29.9 in SSE 9 mph 11 mph 71% 0.000 in 0.00 W/m2
20:49 81.0 °F 70.0 °F 29.9 in SSE 11 mph 11 mph 71% 0.000 in 0.00 W/m2
20:54 80.0 °F 71.0 °F 29.9 in SE 9 mph 12 mph 72% 0.000 in 0.00 W/m2
20:59 80.0 °F 70.0 °F 29.9 in SSE 8 mph 8 mph 72% 0.000 in 0.00 W/m2
21:04 80.0 °F 71.0 °F 30.0 in SE 9 mph 9 mph 73% 0.000 in 0.00 W/m2
21:09 80.0 °F 71.0 °F 30.0 in SE 9 mph 9 mph 74% 0.000 in 0.00 W/m2
21:14 80.0 °F 71.0 °F 30.0 in SE 8 mph 9 mph 74% 0.000 in 0.00 W/m2
21:19 80.0 °F 71.0 °F 30.0 in SE 10 mph 12 mph 74% 0.000 in 0.00 W/m2
21:24 79.0 °F 70.0 °F 30.0 in SE 9 mph 12 mph 74% 0.000 in 0.00 W/m2
21:29 79.0 °F 71.0 °F 30.0 in SE 8 mph 8 mph 75% 0.000 in 0.00 W/m2
21:34 79.0 °F 71.0 °F 30.0 in SSE 8 mph 8 mph 75% 0.000 in 0.00 W/m2
21:39 79.0 °F 70.0 °F 30.0 in SSE 9 mph 9 mph 75% 0.000 in 0.00 W/m2
21:44 79.0 °F 70.0 °F 30.0 in SSE 10 mph 10 mph 75% 0.000 in 0.00 W/m2
21:49 79.0 °F 70.0 °F 30.0 in SE 8 mph 10 mph 76% 0.000 in 0.00 W/m2
21:54 79.0 °F 70.0 °F 30.0 in SE 10 mph 12 mph 76% 0.000 in 0.00 W/m2
21:59 78.0 °F 70.0 °F 30.0 in SE 10 mph 11 mph 76% 0.000 in 0.00 W/m2
22:04 78.0 °F 70.0 °F 30.0 in SE 9 mph 11 mph 76% 0.000 in 0.00 W/m2
22:09 78.0 °F 70.0 °F 30.0 in SE 9 mph 9 mph 76% 0.000 in 0.00 W/m2
22:14 78.0 °F 70.0 °F 30.0 in SSE 8 mph 8 mph 76% 0.000 in 0.00 W/m2
22:19 78.0 °F 70.0 °F 30.0 in SSE 8 mph 8 mph 77% 0.000 in 0.00 W/m2
22:24 78.0 °F 70.0 °F 30.0 in SSE 8 mph 8 mph 77% 0.000 in 0.00 W/m2
22:29 78.0 °F 70.0 °F 30.0 in SSE 11 mph 11 mph 77% 0.000 in 0.00 W/m2
22:34 78.0 °F 70.0 °F 30.0 in SE 10 mph 10 mph 77% 0.000 in 0.00 W/m2
22:39 78.0 °F 71.0 °F 30.0 in SSE 11 mph 11 mph 78% 0.000 in 0.00 W/m2
22:44 78.0 °F 71.0 °F 30.0 in SSE 9 mph 10 mph 78% 0.000 in 0.00 W/m2
22:49 78.0 °F 71.0 °F 30.0 in SE 4 mph 5 mph 78% 0.000 in 0.00 W/m2
22:54 78.0 °F 71.0 °F 30.0 in SSE 5 mph 6 mph 78% 0.000 in 0.00 W/m2
22:59 78.0 °F 70.0 °F 30.0 in SSE 7 mph 7 mph 78% 0.000 in 0.00 W/m2
23:04 78.0 °F 71.0 °F 30.0 in SE 4 mph 6 mph 79% 0.000 in 0.00 W/m2
23:09 78.0 °F 71.0 °F 30.0 in SSE 4 mph 5 mph 79% 0.000 in 0.00 W/m2
23:14 78.0 °F 71.0 °F 30.0 in SSE 3 mph 4 mph 79% 0.000 in 0.00 W/m2
23:19 78.0 °F 71.0 °F 30.0 in SSE 3 mph 5 mph 79% 0.000 in 0.00 W/m2
23:24 78.0 °F 71.0 °F 30.0 in SE 4 mph 4 mph 79% 0.000 in 0.00 W/m2
23:29 77.0 °F 71.0 °F 30.0 in SE 5 mph 7 mph 80% 0.000 in 0.00 W/m2
23:34 77.0 °F 71.0 °F 30.0 in SE 3 mph 3 mph 80% 0.000 in 0.00 W/m2
23:39 77.0 °F 71.0 °F 30.0 in SE 4 mph 4 mph 80% 0.000 in 0.00 W/m2
23:44 77.0 °F 71.0 °F 30.0 in SE 4 mph 4 mph 80% 0.000 in 0.00 W/m2
23:49 77.0 °F 71.0 °F 30.0 in SE 4 mph 4 mph 81% 0.000 in 0.00 W/m2
23:54 77.0 °F 71.0 °F 30.0 in SE 4 mph 5 mph 81% 0.000 in 0.00 W/m2
23:59 77.0 °F 71.0 °F 30.0 in SE 2 mph 4 mph 81% 0.000 in 0.00 W/m2
Villages of Bridgestone, Spring, TX USA
Compliments of Weather Underground - 4 mb